createdAt,value
2023-03-06T00:04:03.246Z,7.806020066889632
2023-03-06T00:15:01.115Z,7.852842809364549
2023-03-06T00:21:20.597Z,10.167224080267559
2023-03-06T00:27:39.181Z,10.357859531772576
2023-03-06T00:33:58.031Z,6.441471571906354
2023-03-06T00:40:17.041Z,11.605351170568563
2023-03-06T00:46:37.629Z,7.969899665551839
2023-03-06T00:52:56.890Z,9.444816053511706
2023-03-06T01:05:26.428Z,5.351170568561873
2023-03-06T01:11:45.727Z,4.481605351170568
2023-03-06T01:19:37.304Z,3.230769230769231
2023-03-06T01:25:56.504Z,2.8461538461538463
2023-03-06T01:32:15.703Z,3.20066889632107
2023-03-06T01:38:34.557Z,4.11371237458194
2023-03-06T01:48:23.078Z,3.869565217391304
2023-03-06T01:54:41.763Z,4.090301003344481
2023-03-06T02:07:06.520Z,2.9732441471571907
2023-03-06T02:13:26.888Z,0.5418060200668896
2023-03-06T02:19:46.326Z,3.4648829431438126
2023-03-06T02:26:06.400Z,2.3946488294314383
2023-03-06T02:32:24.823Z,1.842809364548495
2023-03-06T02:39:08.182Z,2.367892976588629
2023-03-06T02:45:27.058Z,2.3411371237458196
2023-03-06T02:51:45.808Z,1.8762541806020068
2023-03-06T02:58:04.400Z,2.725752508361204
2023-03-06T03:07:49.193Z,5.7558528428093645
2023-03-06T03:18:27.052Z,6.461538461538462
2023-03-06T03:24:45.995Z,8.364548494983278
2023-03-06T03:31:05.348Z,12.77257525083612
2023-03-06T03:37:24.085Z,19.441471571906355
2023-03-06T03:43:42.809Z,20.74247491638796
2023-03-06T03:50:01.920Z,21.401337792642142
2023-03-06T03:56:20.368Z,13.852842809364548
2023-03-06T04:04:35.740Z,8.74247491638796
2023-03-06T04:10:55.001Z,13.200668896321071
2023-03-06T04:17:43.989Z,14.698996655518394
2023-03-06T04:24:44.868Z,17.906354515050168
2023-03-06T04:31:03.538Z,18.448160535117058
2023-03-06T04:37:22.129Z,12.806020066889632
2023-03-06T04:43:40.827Z,7.672240802675585
2023-03-06T04:49:59.951Z,5.695652173913044
2023-03-06T05:04:57.514Z,7.6923076923076925
2023-03-06T05:11:18.267Z,5.508361204013378
2023-03-06T05:17:38.424Z,14.20401337792642
2023-03-06T05:23:56.371Z,23.63545150501672
2023-03-06T05:30:17.250Z,24.765886287625417
2023-03-06T05:36:37.335Z,30.00334448160535
2023-03-06T05:45:40.142Z,31.8561872909699
2023-03-06T05:52:01.955Z,25.792642140468228
2023-03-06T05:58:24.216Z,31.842809364548494
2023-03-06T06:04:45.921Z,29.909698996655518
2023-03-06T06:15:34.350Z,50.719063545150505
2023-03-06T06:21:52.590Z,47.32107023411371
2023-03-06T06:28:17.884Z,53.22742474916388
2023-03-06T06:34:38.492Z,57.78260869565217
2023-03-06T06:45:20.236Z,83.33444816053512
2023-03-06T06:51:38.557Z,76.99665551839465
2023-03-06T06:57:58.714Z,62.2876254180602
2023-03-06T07:04:18.713Z,69.65217391304348
2023-03-06T07:11:18.824Z,63.48160535117057
2023-03-06T07:27:03.038Z,57.852842809364546
2023-03-06T07:38:53.948Z,67.85953177257525
2023-03-06T07:45:15.804Z,74.11036789297658
2023-03-06T07:51:36.934Z,86.33779264214047
2023-03-06T07:57:58.512Z,88.64882943143813
2023-03-06T08:13:34.329Z,86.1638795986622
2023-03-06T08:26:50.811Z,107.34782608695652
2023-03-06T08:42:46.663Z,123.21404682274247
2023-03-06T08:49:07.961Z,129.80267558528428
2023-03-06T08:55:28.833Z,125.7123745819398
2023-03-06T09:01:49.077Z,135.73244147157192
2023-03-06T09:13:06.509Z,148.45150501672242
2023-03-06T09:19:27.485Z,135.97993311036788
2023-03-06T09:25:48.040Z,97.84615384615384
2023-03-06T09:32:11.750Z,84.63879598662207
2023-03-06T09:40:01.769Z,77.46822742474916
2023-03-06T09:49:33.383Z,49.31103678929766
2023-03-06T09:55:54.224Z,61.48160535117057
2023-03-06T10:02:14.923Z,50.71571906354515
2023-03-06T10:13:21.175Z,38.0
2023-03-06T10:25:21.992Z,20.090301003344482
2023-03-06T10:31:42.711Z,17.247491638795985
2023-03-06T10:38:03.307Z,19.100334448160535
2023-03-06T10:44:24.178Z,10.632107023411372
2023-03-06T10:50:44.390Z,18.153846153846153
2023-03-06T10:57:05.142Z,13.163879598662207
2023-03-06T11:03:26.273Z,19.65551839464883
2023-03-06T11:15:49.398Z,26.357859531772576
2023-03-06T11:25:33.987Z,27.785953177257525
2023-03-06T11:31:54.808Z,27.411371237458194
2023-03-06T11:38:15.797Z,24.03344481605351
2023-03-06T11:44:36.752Z,24.568561872909697
2023-03-06T11:51:25.699Z,22.809364548494983
2023-03-06T11:57:47.252Z,22.02675585284281
2023-03-06T12:04:09.191Z,21.42809364548495
2023-03-06T12:10:30.750Z,24.889632107023413
2023-03-06T12:16:52.490Z,14.454849498327759
2023-03-06T12:24:40.441Z,13.51505016722408
2023-03-06T12:31:02.300Z,9.555183946488294
2023-03-06T12:37:23.739Z,6.862876254180602
2023-03-06T12:43:45.450Z,3.9933110367892977
2023-03-06T12:50:09.213Z,6.789297658862877
2023-03-06T12:57:56.612Z,6.05685618729097
2023-03-06T13:04:18.216Z,7.110367892976589
2023-03-06T13:10:40.573Z,6.518394648829432
2023-03-06T13:17:05.197Z,4.083612040133779
2023-03-06T13:23:28.293Z,3.588628762541806
2023-03-06T13:29:50.323Z,1.9531772575250836
2023-03-06T13:36:12.504Z,4.187290969899665
2023-03-06T13:42:33.968Z,3.137123745819398
2023-03-06T13:48:55.568Z,2.37123745819398
2023-03-06T13:55:17.228Z,2.749163879598662
2023-03-06T14:01:39.739Z,2.963210702341137
2023-03-06T14:08:01.390Z,2.782608695652174
2023-03-06T14:14:22.879Z,3.548494983277592
2023-03-06T14:25:34.800Z,3.036789297658863
2023-03-06T14:31:56.088Z,2.3411371237458196
2023-03-06T14:38:17.663Z,2.331103678929766
2023-03-06T14:45:36.867Z,3.31438127090301
2023-03-06T14:51:58.026Z,1.374581939799331
2023-03-06T14:58:19.376Z,2.678929765886288
2023-03-06T15:04:40.652Z,2.5585284280936453
2023-03-06T15:11:02.213Z,3.7859531772575252
2023-03-06T15:17:23.483Z,2.5852842809364547
2023-03-06T15:26:32.520Z,8.153846153846153
2023-03-06T15:32:53.957Z,3.5752508361204014
2023-03-06T15:39:16.994Z,7.2040133779264215
2023-03-06T15:45:38.622Z,11.214046822742475
2023-03-06T15:52:00.483Z,7.311036789297659
2023-03-06T15:58:21.954Z,8.180602006688963
2023-03-06T16:04:43.273Z,11.79598662207358
2023-03-06T16:13:22.735Z,6.2207357859531776
2023-03-06T16:19:44.282Z,6.250836120401337
2023-03-06T16:26:06.129Z,7.662207357859532
2023-03-06T16:43:08.004Z,5.264214046822742
2023-03-06T16:49:29.256Z,5.0602006688963215
2023-03-06T16:55:50.271Z,5.923076923076923
2023-03-06T17:02:12.063Z,8.311036789297658
2023-03-06T17:12:49.548Z,8.869565217391305
2023-03-06T17:21:39.428Z,11.816053511705686
2023-03-06T17:33:07.579Z,16.274247491638796
2023-03-06T17:39:27.168Z,12.187290969899665
2023-03-06T17:50:26.044Z,18.13377926421405
2023-03-06T17:56:44.852Z,17.39799331103679
2023-03-06T18:03:05.949Z,16.63545150501672
2023-03-06T18:09:24.772Z,20.869565217391305
2023-03-06T18:15:43.489Z,26.384615384615383
2023-03-06T18:26:58.653Z,36.76254180602007
2023-03-06T18:36:21.103Z,24.45484949832776
2023-03-06T18:42:40.005Z,27.77257525083612
2023-03-06T18:48:59.511Z,21.45484949832776
2023-03-06T19:03:38.815Z,27.82274247491639
2023-03-06T19:17:25.228Z,20.187290969899667
2023-03-06T19:23:43.827Z,24.725752508361204
2023-03-06T19:30:03.214Z,22.244147157190636
2023-03-06T19:36:22.519Z,22.752508361204015
2023-03-06T19:48:38.406Z,20.50836120401338
2023-03-06T19:54:57.332Z,26.107023411371237
2023-03-06T20:06:23.533Z,24.91638795986622
2023-03-06T20:12:41.958Z,24.066889632107024
2023-03-06T20:19:00.727Z,28.39799331103679
2023-03-06T20:25:19.397Z,23.090301003344482
2023-03-06T20:31:37.397Z,28.862876254180602
2023-03-06T20:37:56.314Z,32.357859531772576
2023-03-06T20:44:14.800Z,37.21739130434783
2023-03-06T20:50:33.244Z,31.906354515050168
2023-03-06T20:56:51.641Z,34.50501672240803
2023-03-06T21:03:11.592Z,32.10033444816054
2023-03-06T21:09:30.088Z,38.719063545150505
2023-03-06T21:33:34.933Z,57.83946488294314
2023-03-06T21:39:53.977Z,67.59197324414716
2023-03-06T21:52:49.118Z,102.2809364548495
2023-03-06T22:06:13.119Z,130.47491638795987
2023-03-06T22:12:31.245Z,137.2809364548495
2023-03-06T22:18:50.121Z,173.80936454849498
2023-03-06T22:25:08.373Z,184.05016722408027
2023-03-06T22:39:30.699Z,235.26755852842808
2023-03-06T22:47:14.864Z,268.39464882943145
2023-03-06T23:04:21.801Z,348.3612040133779
2023-03-06T23:10:40.807Z,369.7792642140468
2023-03-06T23:22:23.409Z,384.16053511705684
2023-03-06T23:28:41.942Z,420.123745819398
2023-03-06T23:35:01.389Z,428.88963210702343
2023-03-06T23:45:27.080Z,442.2274247491639
2023-03-06T23:51:45.340Z,424.04682274247494
